sensor_id;sensor_type;location;lat;lon;timestamp;P1;durP1;ratioP1;P2;durP2;ratioP2
20984;SDS011;10651;47.552;7.606;2023-11-18T06:26:16;18.80;;;13.50;;
20984;SDS011;10651;47.552;7.606;2023-11-18T06:28:43;19.00;;;12.95;;
20984;SDS011;10651;47.552;7.606;2023-11-18T06:31:10;17.20;;;13.27;;
20984;SDS011;10651;47.552;7.606;2023-11-18T06:33:39;19.63;;;13.57;;
20984;SDS011;10651;47.552;7.606;2023-11-18T06:38:47;14.95;;;12.10;;
20984;SDS011;10651;47.552;7.606;2023-11-18T06:41:17;17.67;;;10.93;;
20984;SDS011;10651;47.552;7.606;2023-11-18T06:43:44;15.07;;;12.03;;
20984;SDS011;10651;47.552;7.606;2023-11-18T06:46:19;17.85;;;11.07;;
20984;SDS011;10651;47.552;7.606;2023-11-18T06:48:49;14.35;;;10.35;;
20984;SDS011;10651;47.552;7.606;2023-11-18T06:51:19;17.67;;;13.38;;
20984;SDS011;10651;47.552;7.606;2023-11-18T06:53:58;16.98;;;13.45;;
20984;SDS011;10651;47.552;7.606;2023-11-18T06:56:42;19.23;;;14.17;;
20984;SDS011;10651;47.552;7.606;2023-11-18T06:59:36;29.52;;;18.35;;
20984;SDS011;10651;47.552;7.606;2023-11-18T07:02:08;27.63;;;17.92;;
20984;SDS011;10651;47.552;7.606;2023-11-18T07:04:35;28.23;;;17.27;;
20984;SDS011;10651;47.552;7.606;2023-11-18T07:07:01;28.75;;;15.95;;
20984;SDS011;10651;47.552;7.606;2023-11-18T07:09:30;22.85;;;16.45;;
20984;SDS011;10651;47.552;7.606;2023-11-18T07:12:01;24.93;;;17.80;;
20984;SDS011;10651;47.552;7.606;2023-11-18T07:14:28;26.17;;;16.60;;
20984;SDS011;10651;47.552;7.606;2023-11-18T07:16:57;24.83;;;13.60;;
20984;SDS011;10651;47.552;7.606;2023-11-18T07:19:23;20.58;;;14.93;;
20984;SDS011;10651;47.552;7.606;2023-11-18T07:21:49;16.95;;;12.25;;
20984;SDS011;10651;47.552;7.606;2023-11-18T07:24:24;22.13;;;13.93;;
20984;SDS011;10651;47.552;7.606;2023-11-18T07:27:07;21.40;;;13.33;;
20984;SDS011;10651;47.552;7.606;2023-11-18T07:29:44;20.70;;;11.82;;
20984;SDS011;10651;47.552;7.606;2023-11-18T07:32:10;14.95;;;10.25;;
20984;SDS011;10651;47.552;7.606;2023-11-18T07:37:21;16.85;;;11.57;;
20984;SDS011;10651;47.552;7.606;2023-11-18T07:39:47;21.27;;;16.10;;
20984;SDS011;10651;47.552;7.606;2023-11-18T07:43:20;13.85;;;10.68;;
20984;SDS011;10651;47.552;7.606;2023-11-18T07:46:11;17.65;;;12.15;;
20984;SDS011;10651;47.552;7.606;2023-11-18T07:48:38;23.27;;;13.25;;
20984;SDS011;10651;47.552;7.606;2023-11-18T07:57:32;19.45;;;12.57;;
20984;SDS011;10651;47.552;7.606;2023-11-18T08:00:24;15.20;;;12.55;;
20984;SDS011;10651;47.552;7.606;2023-11-18T08:03:19;17.98;;;9.55;;
20984;SDS011;10651;47.552;7.606;2023-11-18T08:09:56;16.67;;;10.80;;
20984;SDS011;10651;47.552;7.606;2023-11-18T08:13:12;16.70;;;12.48;;
20984;SDS011;10651;47.552;7.606;2023-11-18T08:16:32;15.75;;;11.75;;
20984;SDS011;10651;47.552;7.606;2023-11-18T08:19:41;16.35;;;13.32;;
20984;SDS011;10651;47.552;7.606;2023-11-18T08:22:30;17.23;;;13.05;;
20984;SDS011;10651;47.552;7.606;2023-11-18T08:25:19;15.60;;;11.05;;
20984;SDS011;10651;47.552;7.606;2023-11-18T08:38:47;18.13;;;12.53;;
20984;SDS011;10651;47.552;7.606;2023-11-18T08:41:14;12.88;;;9.50;;
20984;SDS011;10651;47.552;7.606;2023-11-18T08:43:40;16.30;;;12.32;;
20984;SDS011;10651;47.552;7.606;2023-11-18T08:46:15;17.60;;;11.18;;
20984;SDS011;10651;47.552;7.606;2023-11-18T09:02:31;13.40;;;9.50;;
20984;SDS011;10651;47.552;7.606;2023-11-18T09:08:36;10.85;;;8.70;;
20984;SDS011;10651;47.552;7.606;2023-11-18T09:11:11;15.35;;;10.10;;
20984;SDS011;10651;47.552;7.606;2023-11-18T09:13:48;12.52;;;9.57;;
20984;SDS011;10651;47.552;7.606;2023-11-18T09:16:27;15.05;;;9.23;;
20984;SDS011;10651;47.552;7.606;2023-11-18T09:18:58;10.07;;;7.85;;
20984;SDS011;10651;47.552;7.606;2023-11-18T09:21:27;10.82;;;8.38;;
20984;SDS011;10651;47.552;7.606;2023-11-18T09:23:54;8.75;;;7.45;;
20984;SDS011;10651;47.552;7.606;2023-11-18T09:26:21;11.32;;;8.88;;
20984;SDS011;10651;47.552;7.606;2023-11-18T09:28:48;11.93;;;8.25;;
20984;SDS011;10651;47.552;7.606;2023-11-18T09:31:17;10.73;;;9.43;;
20984;SDS011;10651;47.552;7.606;2023-11-18T09:33:43;11.40;;;9.40;;
20984;SDS011;10651;47.552;7.606;2023-11-18T09:36:17;12.02;;;8.95;;
20984;SDS011;10651;47.552;7.606;2023-11-18T09:38:46;13.18;;;8.35;;
20984;SDS011;10651;47.552;7.606;2023-11-18T09:41:15;9.95;;;8.05;;
20984;SDS011;10651;47.552;7.606;2023-11-18T09:43:42;11.73;;;8.75;;
20984;SDS011;10651;47.552;7.606;2023-11-18T09:46:25;9.65;;;8.65;;
20984;SDS011;10651;47.552;7.606;2023-11-18T09:52:04;12.20;;;8.35;;
20984;SDS011;10651;47.552;7.606;2023-11-18T09:54:49;13.27;;;8.93;;
20984;SDS011;10651;47.552;7.606;2023-11-18T09:57:40;11.35;;;8.20;;
20984;SDS011;10651;47.552;7.606;2023-11-18T10:00:41;9.63;;;8.38;;
20984;SDS011;10651;47.552;7.606;2023-11-18T10:03:16;11.57;;;8.40;;
20984;SDS011;10651;47.552;7.606;2023-11-18T10:05:42;9.48;;;8.20;;
20984;SDS011;10651;47.552;7.606;2023-11-18T10:10:51;13.48;;;7.40;;
20984;SDS011;10651;47.552;7.606;2023-11-18T10:13:30;11.32;;;8.90;;
20984;SDS011;10651;47.552;7.606;2023-11-18T10:16:00;9.73;;;7.15;;
20984;SDS011;10651;47.552;7.606;2023-11-18T10:18:30;8.85;;;7.00;;
20984;SDS011;10651;47.552;7.606;2023-11-18T10:21:03;9.50;;;6.93;;
20984;SDS011;10651;47.552;7.606;2023-11-18T10:23:29;11.15;;;6.90;;
20984;SDS011;10651;47.552;7.606;2023-11-18T10:25:59;9.30;;;6.93;;
20984;SDS011;10651;47.552;7.606;2023-11-18T10:28:33;9.40;;;7.03;;
20984;SDS011;10651;47.552;7.606;2023-11-18T10:31:06;8.48;;;6.60;;
20984;SDS011;10651;47.552;7.606;2023-11-18T10:33:39;7.32;;;6.38;;
20984;SDS011;10651;47.552;7.606;2023-11-18T10:36:20;7.93;;;7.03;;
20984;SDS011;10651;47.552;7.606;2023-11-18T10:39:01;6.60;;;5.93;;
20984;SDS011;10651;47.552;7.606;2023-11-18T10:41:41;9.63;;;6.55;;
20984;SDS011;10651;47.552;7.606;2023-11-18T10:44:13;7.55;;;6.38;;
20984;SDS011;10651;47.552;7.606;2023-11-18T10:46:54;8.15;;;6.20;;
20984;SDS011;10651;47.552;7.606;2023-11-18T10:49:41;11.95;;;6.28;;
20984;SDS011;10651;47.552;7.606;2023-11-18T10:52:21;9.70;;;6.50;;
20984;SDS011;10651;47.552;7.606;2023-11-18T10:55:00;9.85;;;6.05;;
20984;SDS011;10651;47.552;7.606;2023-11-18T10:57:36;8.20;;;6.10;;
20984;SDS011;10651;47.552;7.606;2023-11-18T11:03:56;7.32;;;6.00;;
20984;SDS011;10651;47.552;7.606;2023-11-18T11:06:26;8.70;;;6.75;;
20984;SDS011;10651;47.552;7.606;2023-11-18T11:09:02;7.55;;;6.75;;
20984;SDS011;10651;47.552;7.606;2023-11-18T11:12:00;14.10;;;6.90;;
20984;SDS011;10651;47.552;7.606;2023-11-18T11:14:37;9.57;;;6.82;;
20984;SDS011;10651;47.552;7.606;2023-11-18T11:17:48;8.63;;;6.75;;
20984;SDS011;10651;47.552;7.606;2023-11-18T11:21:43;7.93;;;7.05;;
20984;SDS011;10651;47.552;7.606;2023-11-18T11:24:06;7.35;;;6.18;;
20984;SDS011;10651;47.552;7.606;2023-11-18T11:27:08;7.60;;;6.90;;
20984;SDS011;10651;47.552;7.606;2023-11-18T11:36:30;7.97;;;6.15;;
20984;SDS011;10651;47.552;7.606;2023-11-18T11:39:18;9.00;;;6.00;;
20984;SDS011;10651;47.552;7.606;2023-11-18T11:42:06;14.48;;;6.55;;
20984;SDS011;10651;47.552;7.606;2023-11-18T11:44:41;11.20;;;7.05;;
20984;SDS011;10651;47.552;7.606;2023-11-18T11:57:14;9.30;;;8.27;;
20984;SDS011;10651;47.552;7.606;2023-11-18T12:03:23;10.00;;;7.43;;
20984;SDS011;10651;47.552;7.606;2023-11-18T12:20:05;7.65;;;6.10;;
20984;SDS011;10651;47.552;7.606;2023-11-18T12:23:33;8.73;;;5.95;;
20984;SDS011;10651;47.552;7.606;2023-11-18T12:26:40;9.90;;;6.45;;
20984;SDS011;10651;47.552;7.606;2023-11-18T12:29:29;7.93;;;6.30;;
20984;SDS011;10651;47.552;7.606;2023-11-18T12:32:32;8.27;;;6.28;;
20984;SDS011;10651;47.552;7.606;2023-11-18T12:35:19;10.93;;;6.03;;
20984;SDS011;10651;47.552;7.606;2023-11-18T12:41:06;10.10;;;6.53;;
20984;SDS011;10651;47.552;7.606;2023-11-18T12:44:10;9.18;;;6.00;;
20984;SDS011;10651;47.552;7.606;2023-11-18T12:54:28;9.95;;;6.93;;
20984;SDS011;10651;47.552;7.606;2023-11-18T12:57:08;9.90;;;5.93;;
20984;SDS011;10651;47.552;7.606;2023-11-18T13:00:02;8.02;;;7.00;;
20984;SDS011;10651;47.552;7.606;2023-11-18T13:02:42;11.40;;;8.85;;
20984;SDS011;10651;47.552;7.606;2023-11-18T13:05:11;9.13;;;6.85;;
20984;SDS011;10651;47.552;7.606;2023-11-18T13:07:44;12.95;;;9.35;;
20984;SDS011;10651;47.552;7.606;2023-11-18T13:10:49;11.38;;;7.72;;
20984;SDS011;10651;47.552;7.606;2023-11-18T13:13:15;10.23;;;6.72;;
20984;SDS011;10651;47.552;7.606;2023-11-18T13:15:46;8.48;;;6.90;;
20984;SDS011;10651;47.552;7.606;2023-11-18T13:18:22;13.77;;;8.98;;
20984;SDS011;10651;47.552;7.606;2023-11-18T13:21:06;9.00;;;7.20;;
20984;SDS011;10651;47.552;7.606;2023-11-18T13:23:32;8.15;;;6.60;;
20984;SDS011;10651;47.552;7.606;2023-11-18T13:26:01;8.52;;;6.70;;
20984;SDS011;10651;47.552;7.606;2023-11-18T13:28:31;8.50;;;6.50;;
20984;SDS011;10651;47.552;7.606;2023-11-18T13:30:57;9.10;;;6.95;;
20984;SDS011;10651;47.552;7.606;2023-11-18T13:33:24;9.02;;;7.05;;
20984;SDS011;10651;47.552;7.606;2023-11-18T13:35:50;9.05;;;6.50;;
20984;SDS011;10651;47.552;7.606;2023-11-18T13:38:16;9.77;;;6.47;;
20984;SDS011;10651;47.552;7.606;2023-11-18T13:40:46;9.32;;;7.95;;
20984;SDS011;10651;47.552;7.606;2023-11-18T13:43:13;10.77;;;6.90;;
20984;SDS011;10651;47.552;7.606;2023-11-18T13:45:40;9.60;;;7.93;;
20984;SDS011;10651;47.552;7.606;2023-11-18T13:48:16;9.40;;;6.82;;
20984;SDS011;10651;47.552;7.606;2023-11-18T13:50:42;10.82;;;6.82;;
20984;SDS011;10651;47.552;7.606;2023-11-18T13:53:17;10.30;;;7.35;;
20984;SDS011;10651;47.552;7.606;2023-11-18T13:55:42;11.23;;;7.00;;
20984;SDS011;10651;47.552;7.606;2023-11-18T13:58:08;13.10;;;7.13;;
20984;SDS011;10651;47.552;7.606;2023-11-18T14:00:46;8.35;;;7.10;;
20984;SDS011;10651;47.552;7.606;2023-11-18T14:03:14;8.18;;;6.95;;
20984;SDS011;10651;47.552;7.606;2023-11-18T14:05:40;12.00;;;7.53;;
20984;SDS011;10651;47.552;7.606;2023-11-18T14:08:10;8.18;;;7.10;;
20984;SDS011;10651;47.552;7.606;2023-11-18T14:10:37;8.88;;;6.43;;
20984;SDS011;10651;47.552;7.606;2023-11-18T14:13:06;10.73;;;6.70;;
20984;SDS011;10651;47.552;7.606;2023-11-18T14:15:34;9.63;;;7.13;;
20984;SDS011;10651;47.552;7.606;2023-11-18T14:18:03;12.00;;;8.30;;
20984;SDS011;10651;47.552;7.606;2023-11-18T14:20:29;9.95;;;6.85;;
20984;SDS011;10651;47.552;7.606;2023-11-18T14:22:57;9.43;;;6.97;;
20984;SDS011;10651;47.552;7.606;2023-11-18T14:25:23;9.75;;;6.93;;
20984;SDS011;10651;47.552;7.606;2023-11-18T14:27:50;9.52;;;6.65;;
20984;SDS011;10651;47.552;7.606;2023-11-18T14:30:16;10.60;;;7.15;;
20984;SDS011;10651;47.552;7.606;2023-11-18T14:32:42;9.00;;;6.47;;
20984;SDS011;10651;47.552;7.606;2023-11-18T14:35:18;9.15;;;7.50;;
20984;SDS011;10651;47.552;7.606;2023-11-18T14:37:44;10.60;;;6.13;;
20984;SDS011;10651;47.552;7.606;2023-11-18T14:40:13;6.75;;;5.63;;
20984;SDS011;10651;47.552;7.606;2023-11-18T14:42:43;7.68;;;5.60;;
20984;SDS011;10651;47.552;7.606;2023-11-18T14:45:12;8.85;;;5.95;;
20984;SDS011;10651;47.552;7.606;2023-11-18T14:47:42;8.07;;;6.05;;
20984;SDS011;10651;47.552;7.606;2023-11-18T14:50:13;21.48;;;11.32;;
20984;SDS011;10651;47.552;7.606;2023-11-18T14:52:51;13.23;;;7.85;;
20984;SDS011;10651;47.552;7.606;2023-11-18T14:55:28;6.88;;;5.47;;
20984;SDS011;10651;47.552;7.606;2023-11-18T14:57:57;9.90;;;6.15;;
20984;SDS011;10651;47.552;7.606;2023-11-18T15:00:29;7.25;;;5.13;;
20984;SDS011;10651;47.552;7.606;2023-11-18T15:03:02;6.10;;;5.50;;
20984;SDS011;10651;47.552;7.606;2023-11-18T15:05:31;8.27;;;5.88;;
20984;SDS011;10651;47.552;7.606;2023-11-18T15:07:59;9.60;;;5.70;;
20984;SDS011;10651;47.552;7.606;2023-11-18T15:10:39;7.28;;;5.25;;
20984;SDS011;10651;47.552;7.606;2023-11-18T15:13:08;7.50;;;4.85;;
20984;SDS011;10651;47.552;7.606;2023-11-18T15:15:40;6.65;;;5.32;;
20984;SDS011;10651;47.552;7.606;2023-11-18T15:18:06;9.27;;;4.22;;
20984;SDS011;10651;47.552;7.606;2023-11-18T15:20:35;8.25;;;4.43;;
20984;SDS011;10651;47.552;7.606;2023-11-18T15:23:01;7.80;;;5.22;;
20984;SDS011;10651;47.552;7.606;2023-11-18T15:25:27;5.00;;;4.50;;
20984;SDS011;10651;47.552;7.606;2023-11-18T15:27:57;6.00;;;4.50;;
20984;SDS011;10651;47.552;7.606;2023-11-18T15:30:24;7.28;;;5.47;;
20984;SDS011;10651;47.552;7.606;2023-11-18T15:32:50;8.45;;;6.35;;
20984;SDS011;10651;47.552;7.606;2023-11-18T15:35:17;10.40;;;5.50;;
20984;SDS011;10651;47.552;7.606;2023-11-18T15:37:43;9.38;;;5.40;;
20984;SDS011;10651;47.552;7.606;2023-11-18T15:40:12;10.65;;;7.00;;
20984;SDS011;10651;47.552;7.606;2023-11-18T15:45:09;7.10;;;4.95;;
20984;SDS011;10651;47.552;7.606;2023-11-18T15:47:39;5.45;;;4.18;;
20984;SDS011;10651;47.552;7.606;2023-11-18T15:50:10;4.75;;;4.10;;
20984;SDS011;10651;47.552;7.606;2023-11-18T15:55:18;9.57;;;5.95;;
20984;SDS011;10651;47.552;7.606;2023-11-18T15:57:44;5.22;;;4.47;;
20984;SDS011;10651;47.552;7.606;2023-11-18T16:00:17;7.32;;;4.75;;
20984;SDS011;10651;47.552;7.606;2023-11-18T16:02:50;5.53;;;4.30;;
20984;SDS011;10651;47.552;7.606;2023-11-18T16:05:17;5.75;;;4.10;;
20984;SDS011;10651;47.552;7.606;2023-11-18T16:07:50;6.07;;;4.55;;
20984;SDS011;10651;47.552;7.606;2023-11-18T16:10:24;5.47;;;3.70;;
20984;SDS011;10651;47.552;7.606;2023-11-18T16:12:51;8.95;;;4.25;;
20984;SDS011;10651;47.552;7.606;2023-11-18T16:15:18;10.85;;;8.02;;
20984;SDS011;10651;47.552;7.606;2023-11-18T16:17:45;6.55;;;4.40;;
20984;SDS011;10651;47.552;7.606;2023-11-18T16:20:11;6.18;;;4.03;;
20984;SDS011;10651;47.552;7.606;2023-11-18T16:22:41;5.47;;;4.28;;
20984;SDS011;10651;47.552;7.606;2023-11-18T16:25:18;7.70;;;3.88;;
20984;SDS011;10651;47.552;7.606;2023-11-18T16:27:53;6.78;;;4.10;;
20984;SDS011;10651;47.552;7.606;2023-11-18T16:30:21;5.05;;;3.85;;
20984;SDS011;10651;47.552;7.606;2023-11-18T16:32:51;6.43;;;4.93;;
20984;SDS011;10651;47.552;7.606;2023-11-18T16:35:17;7.70;;;4.75;;
20984;SDS011;10651;47.552;7.606;2023-11-18T16:37:45;9.13;;;7.07;;
20984;SDS011;10651;47.552;7.606;2023-11-18T16:40:11;7.63;;;5.72;;
20984;SDS011;10651;47.552;7.606;2023-11-18T16:42:41;9.68;;;5.63;;
20984;SDS011;10651;47.552;7.606;2023-11-18T16:45:08;8.50;;;6.03;;
20984;SDS011;10651;47.552;7.606;2023-11-18T16:47:41;10.75;;;4.97;;
20984;SDS011;10651;47.552;7.606;2023-11-18T16:50:08;5.55;;;4.43;;
20984;SDS011;10651;47.552;7.606;2023-11-18T16:52:35;7.10;;;4.72;;
20984;SDS011;10651;47.552;7.606;2023-11-18T16:55:16;7.95;;;4.97;;
20984;SDS011;10651;47.552;7.606;2023-11-18T16:57:41;6.55;;;4.93;;
20984;SDS011;10651;47.552;7.606;2023-11-18T17:00:08;10.45;;;4.95;;
20984;SDS011;10651;47.552;7.606;2023-11-18T17:02:53;8.48;;;4.90;;
20984;SDS011;10651;47.552;7.606;2023-11-18T17:05:23;6.88;;;5.15;;
20984;SDS011;10651;47.552;7.606;2023-11-18T17:07:54;7.35;;;5.40;;
20984;SDS011;10651;47.552;7.606;2023-11-18T17:10:20;11.48;;;5.60;;
20984;SDS011;10651;47.552;7.606;2023-11-18T17:12:55;7.93;;;5.40;;
20984;SDS011;10651;47.552;7.606;2023-11-18T17:15:25;9.57;;;5.75;;
20984;SDS011;10651;47.552;7.606;2023-11-18T17:17:53;7.13;;;5.70;;
20984;SDS011;10651;47.552;7.606;2023-11-18T17:20:31;8.68;;;5.45;;
20984;SDS011;10651;47.552;7.606;2023-11-18T17:23:12;11.52;;;5.93;;
20984;SDS011;10651;47.552;7.606;2023-11-18T17:25:40;11.05;;;5.63;;
20984;SDS011;10651;47.552;7.606;2023-11-18T17:28:08;8.88;;;5.65;;
20984;SDS011;10651;47.552;7.606;2023-11-18T17:30:46;9.88;;;5.78;;
20984;SDS011;10651;47.552;7.606;2023-11-18T17:47:03;8.38;;;6.10;;
20984;SDS011;10651;47.552;7.606;2023-11-18T18:01:36;10.55;;;7.18;;
20984;SDS011;10651;47.552;7.606;2023-11-18T18:11:21;8.88;;;6.90;;
20984;SDS011;10651;47.552;7.606;2023-11-18T18:13:47;9.57;;;6.80;;
20984;SDS011;10651;47.552;7.606;2023-11-18T18:16:15;18.85;;;6.93;;
20984;SDS011;10651;47.552;7.606;2023-11-18T18:19:01;13.50;;;7.07;;
20984;SDS011;10651;47.552;7.606;2023-11-18T18:24:16;8.60;;;6.18;;
20984;SDS011;10651;47.552;7.606;2023-11-18T18:26:42;11.13;;;8.65;;
20984;SDS011;10651;47.552;7.606;2023-11-18T18:29:14;10.23;;;6.50;;
20984;SDS011;10651;47.552;7.606;2023-11-18T18:32:01;10.88;;;7.28;;
20984;SDS011;10651;47.552;7.606;2023-11-18T18:34:39;11.07;;;8.82;;
20984;SDS011;10651;47.552;7.606;2023-11-18T18:37:20;11.82;;;9.30;;
20984;SDS011;10651;47.552;7.606;2023-11-18T18:43:08;10.80;;;7.40;;
20984;SDS011;10651;47.552;7.606;2023-11-18T18:45:51;21.85;;;8.40;;
20984;SDS011;10651;47.552;7.606;2023-11-18T18:48:19;14.82;;;8.07;;
20984;SDS011;10651;47.552;7.606;2023-11-18T18:53:52;13.32;;;8.27;;
20984;SDS011;10651;47.552;7.606;2023-11-18T18:59:13;9.93;;;8.07;;
20984;SDS011;10651;47.552;7.606;2023-11-18T19:01:42;10.82;;;7.97;;
20984;SDS011;10651;47.552;7.606;2023-11-18T19:04:15;13.15;;;8.32;;
20984;SDS011;10651;47.552;7.606;2023-11-18T19:06:41;10.57;;;8.23;;
20984;SDS011;10651;47.552;7.606;2023-11-18T19:09:08;17.15;;;9.43;;
20984;SDS011;10651;47.552;7.606;2023-11-18T19:11:35;11.00;;;7.97;;
20984;SDS011;10651;47.552;7.606;2023-11-18T19:14:05;12.48;;;8.13;;
20984;SDS011;10651;47.552;7.606;2023-11-18T19:16:34;11.10;;;8.15;;
20984;SDS011;10651;47.552;7.606;2023-11-18T19:19:00;13.43;;;8.55;;
20984;SDS011;10651;47.552;7.606;2023-11-18T19:21:25;10.93;;;8.07;;
20984;SDS011;10651;47.552;7.606;2023-11-18T19:23:54;11.85;;;8.57;;
20984;SDS011;10651;47.552;7.606;2023-11-18T19:26:20;10.02;;;8.32;;
20984;SDS011;10651;47.552;7.606;2023-11-18T19:28:46;15.38;;;8.75;;
20984;SDS011;10651;47.552;7.606;2023-11-18T19:31:12;19.23;;;9.50;;
20984;SDS011;10651;47.552;7.606;2023-11-18T19:33:38;16.25;;;10.93;;
20984;SDS011;10651;47.552;7.606;2023-11-18T19:36:04;17.58;;;10.38;;
20984;SDS011;10651;47.552;7.606;2023-11-18T19:38:32;14.07;;;10.20;;
20984;SDS011;10651;47.552;7.606;2023-11-18T19:41:02;16.95;;;11.65;;
20984;SDS011;10651;47.552;7.606;2023-11-18T19:43:35;22.67;;;12.75;;
20984;SDS011;10651;47.552;7.606;2023-11-18T19:46:01;18.95;;;12.45;;
20984;SDS011;10651;47.552;7.606;2023-11-18T19:48:28;24.42;;;14.93;;
20984;SDS011;10651;47.552;7.606;2023-11-18T19:50:56;26.40;;;14.13;;
20984;SDS011;10651;47.552;7.606;2023-11-18T19:53:22;30.42;;;15.80;;
20984;SDS011;10651;47.552;7.606;2023-11-18T19:55:48;25.70;;;13.73;;
20984;SDS011;10651;47.552;7.606;2023-11-18T19:58:16;59.47;;;23.83;;
20984;SDS011;10651;47.552;7.606;2023-11-18T20:00:42;35.70;;;15.93;;
20984;SDS011;10651;47.552;7.606;2023-11-18T20:03:09;23.23;;;13.52;;
20984;SDS011;10651;47.552;7.606;2023-11-18T20:05:37;30.10;;;15.95;;
20984;SDS011;10651;47.552;7.606;2023-11-18T20:08:03;23.85;;;13.30;;
20984;SDS011;10651;47.552;7.606;2023-11-18T20:10:31;49.08;;;21.40;;
20984;SDS011;10651;47.552;7.606;2023-11-18T20:12:57;35.42;;;15.52;;
20984;SDS011;10651;47.552;7.606;2023-11-18T20:15:24;25.35;;;14.68;;
20984;SDS011;10651;47.552;7.606;2023-11-18T20:17:57;25.88;;;15.40;;
20984;SDS011;10651;47.552;7.606;2023-11-18T20:20:23;24.33;;;14.13;;
20984;SDS011;10651;47.552;7.606;2023-11-18T20:22:49;23.38;;;13.68;;
20984;SDS011;10651;47.552;7.606;2023-11-18T20:25:21;19.42;;;13.10;;
20984;SDS011;10651;47.552;7.606;2023-11-18T20:27:47;20.15;;;12.25;;
20984;SDS011;10651;47.552;7.606;2023-11-18T20:30:13;22.40;;;12.23;;
20984;SDS011;10651;47.552;7.606;2023-11-18T20:32:40;15.48;;;11.20;;
20984;SDS011;10651;47.552;7.606;2023-11-18T20:35:06;14.07;;;9.95;;
20984;SDS011;10651;47.552;7.606;2023-11-18T20:37:32;16.95;;;10.32;;
20984;SDS011;10651;47.552;7.606;2023-11-18T20:40:00;15.85;;;10.60;;
20984;SDS011;10651;47.552;7.606;2023-11-18T20:42:26;16.70;;;10.00;;
20984;SDS011;10651;47.552;7.606;2023-11-18T20:44:51;16.85;;;10.93;;
20984;SDS011;10651;47.552;7.606;2023-11-18T20:47:17;15.70;;;11.02;;
20984;SDS011;10651;47.552;7.606;2023-11-18T20:49:51;12.75;;;10.55;;
20984;SDS011;10651;47.552;7.606;2023-11-18T20:52:17;15.98;;;10.52;;
20984;SDS011;10651;47.552;7.606;2023-11-18T20:54:42;18.67;;;10.82;;
20984;SDS011;10651;47.552;7.606;2023-11-18T20:57:18;18.25;;;13.65;;
20984;SDS011;10651;47.552;7.606;2023-11-18T20:59:45;19.25;;;11.90;;
20984;SDS011;10651;47.552;7.606;2023-11-18T21:02:14;19.27;;;11.05;;
20984;SDS011;10651;47.552;7.606;2023-11-18T21:04:40;14.68;;;10.85;;
20984;SDS011;10651;47.552;7.606;2023-11-18T21:07:08;13.77;;;11.80;;
20984;SDS011;10651;47.552;7.606;2023-11-18T21:09:37;15.20;;;11.85;;
20984;SDS011;10651;47.552;7.606;2023-11-18T21:12:09;14.82;;;12.15;;
20984;SDS011;10651;47.552;7.606;2023-11-18T21:14:38;14.50;;;11.38;;
20984;SDS011;10651;47.552;7.606;2023-11-18T21:17:08;16.10;;;12.48;;
20984;SDS011;10651;47.552;7.606;2023-11-18T21:19:36;16.25;;;10.50;;
20984;SDS011;10651;47.552;7.606;2023-11-18T21:22:02;12.20;;;9.70;;
20984;SDS011;10651;47.552;7.606;2023-11-18T21:24:28;11.68;;;8.73;;
20984;SDS011;10651;47.552;7.606;2023-11-18T21:26:54;12.43;;;10.20;;
20984;SDS011;10651;47.552;7.606;2023-11-18T21:29:20;13.80;;;9.05;;
20984;SDS011;10651;47.552;7.606;2023-11-18T21:31:46;14.15;;;9.77;;
20984;SDS011;10651;47.552;7.606;2023-11-18T21:34:12;12.95;;;9.30;;
20984;SDS011;10651;47.552;7.606;2023-11-18T21:36:38;12.00;;;9.40;;
20984;SDS011;10651;47.552;7.606;2023-11-18T21:39:04;13.85;;;8.75;;
20984;SDS011;10651;47.552;7.606;2023-11-18T21:41:30;12.00;;;9.00;;
20984;SDS011;10651;47.552;7.606;2023-11-18T21:43:57;13.55;;;9.13;;
20984;SDS011;10651;47.552;7.606;2023-11-18T21:46:26;11.65;;;8.55;;
20984;SDS011;10651;47.552;7.606;2023-11-18T21:48:52;10.60;;;8.57;;
20984;SDS011;10651;47.552;7.606;2023-11-18T21:51:18;16.08;;;10.10;;
20984;SDS011;10651;47.552;7.606;2023-11-18T21:53:43;19.23;;;11.13;;
20984;SDS011;10651;47.552;7.606;2023-11-18T21:56:09;16.55;;;10.48;;
20984;SDS011;10651;47.552;7.606;2023-11-18T21:58:35;12.32;;;9.65;;
20984;SDS011;10651;47.552;7.606;2023-11-18T22:01:03;16.25;;;9.77;;
20984;SDS011;10651;47.552;7.606;2023-11-18T22:03:30;13.80;;;10.18;;
20984;SDS011;10651;47.552;7.606;2023-11-18T22:05:56;11.63;;;9.15;;
20984;SDS011;10651;47.552;7.606;2023-11-18T22:08:22;11.25;;;8.20;;
20984;SDS011;10651;47.552;7.606;2023-11-18T22:10:47;13.90;;;9.02;;
20984;SDS011;10651;47.552;7.606;2023-11-18T22:13:13;16.20;;;9.50;;
20984;SDS011;10651;47.552;7.606;2023-11-18T22:15:39;13.82;;;10.10;;
20984;SDS011;10651;47.552;7.606;2023-11-18T22:18:05;14.90;;;9.52;;
20984;SDS011;10651;47.552;7.606;2023-11-18T22:20:30;14.57;;;10.15;;
20984;SDS011;10651;47.552;7.606;2023-11-18T22:23:14;16.65;;;10.80;;
20984;SDS011;10651;47.552;7.606;2023-11-18T22:25:49;14.65;;;10.45;;
20984;SDS011;10651;47.552;7.606;2023-11-18T22:28:39;14.13;;;9.32;;
20984;SDS011;10651;47.552;7.606;2023-11-18T22:31:34;14.68;;;10.73;;
20984;SDS011;10651;47.552;7.606;2023-11-18T22:34:01;14.40;;;10.65;;
20984;SDS011;10651;47.552;7.606;2023-11-18T22:36:32;15.35;;;11.52;;
20984;SDS011;10651;47.552;7.606;2023-11-18T22:38:59;17.17;;;11.88;;
